Terminal Aerodrome Forecast
Issued by NWS

Home | Current Version | Previous Version | Text Only | Print | Product List | Glossary On
Versions: 1 2 3 4 5 6 7 8 9 10 11 12 13 14 15 16 17 18 19 20 21 22
000
FTUS45 KCYS 202325
TAFLAR
TAF
KLAR 202325Z 2100/2124 25012KT P6SM SCT030 BKN050
     FM210300 24014KT P6SM FEW050 SCT250
     FM210700 24014G24KT P6SM BKN040
     FM211400 25025G35KT P6SM SCT030 BKN040=

USA.gov is the U.S. government's official web portal to all federal, state and local government web resources and services.